sensor_id;sensor_type;location;lat;lon;timestamp;P1;durP1;ratioP1;P2;durP2;ratioP2
76597;SDS011;65486;53.144;18.134;2022-12-07T00:00:10;24.50;;;10.50;;
76597;SDS011;65486;53.144;18.134;2022-12-07T00:02:58;22.40;;;10.00;;
76597;SDS011;65486;53.144;18.134;2022-12-07T00:05:26;21.70;;;10.10;;
76597;SDS011;65486;53.144;18.134;2022-12-07T00:07:59;21.70;;;9.60;;
76597;SDS011;65486;53.144;18.134;2022-12-07T00:10:26;18.80;;;7.40;;
76597;SDS011;65486;53.144;18.134;2022-12-07T00:12:55;15.00;;;6.50;;
76597;SDS011;65486;53.144;18.134;2022-12-07T00:15:22;25.80;;;11.20;;
76597;SDS011;65486;53.144;18.134;2022-12-07T00:17:49;22.80;;;9.80;;
76597;SDS011;65486;53.144;18.134;2022-12-07T00:20:16;21.10;;;9.00;;
76597;SDS011;65486;53.144;18.134;2022-12-07T00:22:42;21.90;;;9.80;;
76597;SDS011;65486;53.144;18.134;2022-12-07T00:25:11;21.20;;;9.70;;
76597;SDS011;65486;53.144;18.134;2022-12-07T00:27:38;16.90;;;6.80;;
76597;SDS011;65486;53.144;18.134;2022-12-07T00:30:05;13.20;;;6.10;;
76597;SDS011;65486;53.144;18.134;2022-12-07T00:32:34;14.30;;;6.70;;
76597;SDS011;65486;53.144;18.134;2022-12-07T00:35:04;25.80;;;10.70;;
76597;SDS011;65486;53.144;18.134;2022-12-07T00:37:33;22.90;;;10.10;;
76597;SDS011;65486;53.144;18.134;2022-12-07T00:40:00;17.80;;;8.80;;
76597;SDS011;65486;53.144;18.134;2022-12-07T00:42:27;17.50;;;7.70;;
76597;SDS011;65486;53.144;18.134;2022-12-07T00:44:57;17.30;;;6.90;;
76597;SDS011;65486;53.144;18.134;2022-12-07T00:47:24;15.00;;;7.10;;
76597;SDS011;65486;53.144;18.134;2022-12-07T00:50:05;20.60;;;8.80;;
76597;SDS011;65486;53.144;18.134;2022-12-07T00:52:35;18.40;;;8.50;;
76597;SDS011;65486;53.144;18.134;2022-12-07T00:55:03;18.40;;;9.00;;
76597;SDS011;65486;53.144;18.134;2022-12-07T00:57:30;14.30;;;6.30;;
76597;SDS011;65486;53.144;18.134;2022-12-07T00:59:57;18.00;;;7.70;;
76597;SDS011;65486;53.144;18.134;2022-12-07T01:02:24;18.50;;;8.10;;
76597;SDS011;65486;53.144;18.134;2022-12-07T01:04:51;16.60;;;7.10;;
76597;SDS011;65486;53.144;18.134;2022-12-07T01:07:19;16.90;;;7.90;;
76597;SDS011;65486;53.144;18.134;2022-12-07T01:09:55;15.60;;;7.60;;
76597;SDS011;65486;53.144;18.134;2022-12-07T01:12:57;15.00;;;7.80;;
76597;SDS011;65486;53.144;18.134;2022-12-07T01:15:25;15.90;;;7.70;;
76597;SDS011;65486;53.144;18.134;2022-12-07T01:17:54;7.60;;;3.80;;
76597;SDS011;65486;53.144;18.134;2022-12-07T01:20:24;17.40;;;7.70;;
76597;SDS011;65486;53.144;18.134;2022-12-07T01:22:55;16.40;;;8.50;;
76597;SDS011;65486;53.144;18.134;2022-12-07T01:25:23;14.00;;;7.10;;
76597;SDS011;65486;53.144;18.134;2022-12-07T01:27:50;13.40;;;6.00;;
76597;SDS011;65486;53.144;18.134;2022-12-07T01:30:18;13.60;;;6.00;;
76597;SDS011;65486;53.144;18.134;2022-12-07T01:32:50;13.40;;;6.80;;
76597;SDS011;65486;53.144;18.134;2022-12-07T01:35:20;14.90;;;7.30;;
76597;SDS011;65486;53.144;18.134;2022-12-07T01:38:03;14.20;;;7.20;;
76597;SDS011;65486;53.144;18.134;2022-12-07T01:40:34;12.10;;;6.10;;
76597;SDS011;65486;53.144;18.134;2022-12-07T01:43:21;10.90;;;5.60;;
76597;SDS011;65486;53.144;18.134;2022-12-07T01:46:16;8.60;;;4.20;;
76597;SDS011;65486;53.144;18.134;2022-12-07T01:49:16;10.50;;;5.60;;
76597;SDS011;65486;53.144;18.134;2022-12-07T01:51:49;13.40;;;6.50;;
76597;SDS011;65486;53.144;18.134;2022-12-07T01:54:30;10.40;;;5.70;;
76597;SDS011;65486;53.144;18.134;2022-12-07T01:57:55;10.40;;;5.50;;
76597;SDS011;65486;53.144;18.134;2022-12-07T02:00:23;9.90;;;4.30;;
76597;SDS011;65486;53.144;18.134;2022-12-07T02:05:24;7.10;;;3.60;;
76597;SDS011;65486;53.144;18.134;2022-12-07T02:07:56;9.00;;;4.50;;
76597;SDS011;65486;53.144;18.134;2022-12-07T02:10:39;10.50;;;5.40;;
76597;SDS011;65486;53.144;18.134;2022-12-07T02:24:52;10.40;;;4.40;;
76597;SDS011;65486;53.144;18.134;2022-12-07T02:30:34;10.00;;;4.60;;
76597;SDS011;65486;53.144;18.134;2022-12-07T02:33:12;9.70;;;4.70;;
76597;SDS011;65486;53.144;18.134;2022-12-07T02:35:45;7.70;;;3.90;;
76597;SDS011;65486;53.144;18.134;2022-12-07T02:38:19;11.20;;;4.90;;
76597;SDS011;65486;53.144;18.134;2022-12-07T02:43:35;10.80;;;5.20;;
76597;SDS011;65486;53.144;18.134;2022-12-07T02:46:51;11.00;;;4.80;;
76597;SDS011;65486;53.144;18.134;2022-12-07T02:49:36;9.60;;;4.10;;
76597;SDS011;65486;53.144;18.134;2022-12-07T02:52:52;10.50;;;5.30;;
76597;SDS011;65486;53.144;18.134;2022-12-07T02:55:37;13.20;;;5.80;;
76597;SDS011;65486;53.144;18.134;2022-12-07T02:58:13;13.00;;;5.60;;
76597;SDS011;65486;53.144;18.134;2022-12-07T03:01:00;14.00;;;6.50;;
76597;SDS011;65486;53.144;18.134;2022-12-07T03:04:24;12.60;;;6.10;;
76597;SDS011;65486;53.144;18.134;2022-12-07T03:07:11;17.00;;;6.00;;
76597;SDS011;65486;53.144;18.134;2022-12-07T03:10:27;13.50;;;6.10;;
76597;SDS011;65486;53.144;18.134;2022-12-07T03:16:47;12.80;;;5.20;;
76597;SDS011;65486;53.144;18.134;2022-12-07T03:19:37;16.10;;;6.70;;
76597;SDS011;65486;53.144;18.134;2022-12-07T03:22:14;15.50;;;7.30;;
76597;SDS011;65486;53.144;18.134;2022-12-07T03:24:45;13.90;;;6.60;;
76597;SDS011;65486;53.144;18.134;2022-12-07T03:27:18;14.90;;;6.70;;
76597;SDS011;65486;53.144;18.134;2022-12-07T03:30:05;12.90;;;6.40;;
76597;SDS011;65486;53.144;18.134;2022-12-07T03:32:42;12.50;;;5.50;;
76597;SDS011;65486;53.144;18.134;2022-12-07T03:35:24;12.60;;;6.60;;
76597;SDS011;65486;53.144;18.134;2022-12-07T03:40:45;10.80;;;5.70;;
76597;SDS011;65486;53.144;18.134;2022-12-07T03:43:17;12.70;;;6.20;;
76597;SDS011;65486;53.144;18.134;2022-12-07T03:46:07;10.90;;;5.70;;
76597;SDS011;65486;53.144;18.134;2022-12-07T03:48:56;6.30;;;3.00;;
76597;SDS011;65486;53.144;18.134;2022-12-07T03:51:54;5.80;;;2.90;;
76597;SDS011;65486;53.144;18.134;2022-12-07T03:55:06;12.00;;;5.40;;
76597;SDS011;65486;53.144;18.134;2022-12-07T03:57:43;10.00;;;4.90;;
76597;SDS011;65486;53.144;18.134;2022-12-07T04:00:17;9.40;;;4.60;;
76597;SDS011;65486;53.144;18.134;2022-12-07T04:02:53;8.10;;;3.30;;
76597;SDS011;65486;53.144;18.134;2022-12-07T04:05:22;6.10;;;2.60;;
76597;SDS011;65486;53.144;18.134;2022-12-07T04:07:49;8.50;;;4.20;;
76597;SDS011;65486;53.144;18.134;2022-12-07T04:10:19;9.40;;;4.20;;
76597;SDS011;65486;53.144;18.134;2022-12-07T04:12:47;8.80;;;4.50;;
76597;SDS011;65486;53.144;18.134;2022-12-07T04:15:15;8.40;;;4.50;;
76597;SDS011;65486;53.144;18.134;2022-12-07T04:17:43;8.40;;;4.20;;
76597;SDS011;65486;53.144;18.134;2022-12-07T04:20:10;9.20;;;4.40;;
76597;SDS011;65486;53.144;18.134;2022-12-07T04:22:42;7.00;;;3.50;;
76597;SDS011;65486;53.144;18.134;2022-12-07T04:25:09;12.80;;;6.20;;
76597;SDS011;65486;53.144;18.134;2022-12-07T04:27:39;10.40;;;5.90;;
76597;SDS011;65486;53.144;18.134;2022-12-07T04:30:08;7.50;;;4.20;;
76597;SDS011;65486;53.144;18.134;2022-12-07T04:32:38;9.60;;;5.30;;
76597;SDS011;65486;53.144;18.134;2022-12-07T04:35:06;10.40;;;4.90;;
76597;SDS011;65486;53.144;18.134;2022-12-07T04:37:36;6.90;;;3.50;;
76597;SDS011;65486;53.144;18.134;2022-12-07T04:40:09;13.60;;;7.10;;
76597;SDS011;65486;53.144;18.134;2022-12-07T04:42:37;11.60;;;6.20;;
76597;SDS011;65486;53.144;18.134;2022-12-07T04:45:09;12.90;;;6.30;;
76597;SDS011;65486;53.144;18.134;2022-12-07T04:47:40;14.00;;;7.50;;
76597;SDS011;65486;53.144;18.134;2022-12-07T04:50:09;13.30;;;6.80;;
76597;SDS011;65486;53.144;18.134;2022-12-07T04:52:41;8.50;;;4.20;;
76597;SDS011;65486;53.144;18.134;2022-12-07T04:55:09;17.40;;;8.60;;
76597;SDS011;65486;53.144;18.134;2022-12-07T04:57:37;13.30;;;7.00;;
76597;SDS011;65486;53.144;18.134;2022-12-07T05:00:04;14.50;;;8.10;;
76597;SDS011;65486;53.144;18.134;2022-12-07T05:02:32;13.60;;;8.10;;
76597;SDS011;65486;53.144;18.134;2022-12-07T05:04:59;11.60;;;6.50;;
76597;SDS011;65486;53.144;18.134;2022-12-07T05:07:25;14.30;;;8.50;;
76597;SDS011;65486;53.144;18.134;2022-12-07T05:09:54;12.50;;;6.70;;
76597;SDS011;65486;53.144;18.134;2022-12-07T05:12:28;20.20;;;10.60;;
76597;SDS011;65486;53.144;18.134;2022-12-07T05:15:05;15.70;;;8.40;;
76597;SDS011;65486;53.144;18.134;2022-12-07T05:17:39;17.10;;;9.30;;
76597;SDS011;65486;53.144;18.134;2022-12-07T05:20:28;8.90;;;5.50;;
76597;SDS011;65486;53.144;18.134;2022-12-07T05:23:00;16.90;;;9.10;;
76597;SDS011;65486;53.144;18.134;2022-12-07T05:25:50;13.90;;;7.70;;
76597;SDS011;65486;53.144;18.134;2022-12-07T05:28:22;18.40;;;9.30;;
76597;SDS011;65486;53.144;18.134;2022-12-07T05:30:54;15.70;;;8.40;;
76597;SDS011;65486;53.144;18.134;2022-12-07T05:33:44;15.00;;;7.50;;
76597;SDS011;65486;53.144;18.134;2022-12-07T05:36:30;12.90;;;6.20;;
76597;SDS011;65486;53.144;18.134;2022-12-07T05:39:17;12.10;;;6.20;;
76597;SDS011;65486;53.144;18.134;2022-12-07T05:41:51;12.30;;;5.20;;
76597;SDS011;65486;53.144;18.134;2022-12-07T05:45:08;16.80;;;6.80;;
76597;SDS011;65486;53.144;18.134;2022-12-07T05:47:51;10.40;;;4.80;;
76597;SDS011;65486;53.144;18.134;2022-12-07T05:50:24;13.10;;;6.50;;
76597;SDS011;65486;53.144;18.134;2022-12-07T05:53:00;8.50;;;4.00;;
76597;SDS011;65486;53.144;18.134;2022-12-07T05:55:28;12.30;;;5.00;;
76597;SDS011;65486;53.144;18.134;2022-12-07T05:58:09;8.40;;;3.90;;
76597;SDS011;65486;53.144;18.134;2022-12-07T06:00:55;14.40;;;7.10;;
76597;SDS011;65486;53.144;18.134;2022-12-07T06:03:22;14.30;;;6.20;;
76597;SDS011;65486;53.144;18.134;2022-12-07T06:05:49;13.10;;;6.20;;
76597;SDS011;65486;53.144;18.134;2022-12-07T06:08:18;11.10;;;5.30;;
76597;SDS011;65486;53.144;18.134;2022-12-07T06:10:48;13.80;;;5.40;;
76597;SDS011;65486;53.144;18.134;2022-12-07T06:13:35;11.90;;;5.00;;
76597;SDS011;65486;53.144;18.134;2022-12-07T06:16:06;15.70;;;6.90;;
76597;SDS011;65486;53.144;18.134;2022-12-07T06:18:33;16.40;;;6.60;;
76597;SDS011;65486;53.144;18.134;2022-12-07T06:21:04;16.10;;;6.30;;
76597;SDS011;65486;53.144;18.134;2022-12-07T06:23:33;14.80;;;6.60;;
76597;SDS011;65486;53.144;18.134;2022-12-07T06:26:00;14.20;;;6.60;;
76597;SDS011;65486;53.144;18.134;2022-12-07T06:28:28;18.90;;;6.90;;
76597;SDS011;65486;53.144;18.134;2022-12-07T06:30:59;17.20;;;6.10;;
76597;SDS011;65486;53.144;18.134;2022-12-07T06:33:28;26.30;;;9.10;;
76597;SDS011;65486;53.144;18.134;2022-12-07T06:35:55;22.30;;;8.30;;
76597;SDS011;65486;53.144;18.134;2022-12-07T06:38:22;25.90;;;9.90;;
76597;SDS011;65486;53.144;18.134;2022-12-07T06:40:52;19.50;;;5.20;;
76597;SDS011;65486;53.144;18.134;2022-12-07T06:43:19;19.60;;;8.50;;
76597;SDS011;65486;53.144;18.134;2022-12-07T06:45:48;22.90;;;9.90;;
76597;SDS011;65486;53.144;18.134;2022-12-07T06:48:17;17.40;;;6.70;;
76597;SDS011;65486;53.144;18.134;2022-12-07T06:50:47;21.00;;;8.50;;
76597;SDS011;65486;53.144;18.134;2022-12-07T06:53:15;26.20;;;8.40;;
76597;SDS011;65486;53.144;18.134;2022-12-07T06:55:42;20.80;;;8.20;;
76597;SDS011;65486;53.144;18.134;2022-12-07T06:58:09;22.70;;;9.80;;
76597;SDS011;65486;53.144;18.134;2022-12-07T07:00:36;19.60;;;8.50;;
76597;SDS011;65486;53.144;18.134;2022-12-07T07:03:03;17.40;;;6.70;;
76597;SDS011;65486;53.144;18.134;2022-12-07T07:05:31;14.60;;;6.40;;
76597;SDS011;65486;53.144;18.134;2022-12-07T07:08:00;17.50;;;7.60;;
76597;SDS011;65486;53.144;18.134;2022-12-07T07:10:30;17.40;;;6.80;;
76597;SDS011;65486;53.144;18.134;2022-12-07T07:12:58;21.20;;;9.60;;
76597;SDS011;65486;53.144;18.134;2022-12-07T07:15:33;16.60;;;5.70;;
76597;SDS011;65486;53.144;18.134;2022-12-07T07:18:01;25.30;;;10.20;;
76597;SDS011;65486;53.144;18.134;2022-12-07T07:20:29;20.90;;;9.60;;
76597;SDS011;65486;53.144;18.134;2022-12-07T07:22:57;17.70;;;7.70;;
76597;SDS011;65486;53.144;18.134;2022-12-07T07:25:24;26.00;;;10.80;;
76597;SDS011;65486;53.144;18.134;2022-12-07T07:27:52;18.50;;;7.30;;
76597;SDS011;65486;53.144;18.134;2022-12-07T07:30:19;25.90;;;12.00;;
76597;SDS011;65486;53.144;18.134;2022-12-07T07:32:49;11.20;;;3.30;;
76597;SDS011;65486;53.144;18.134;2022-12-07T07:35:16;17.00;;;6.90;;
76597;SDS011;65486;53.144;18.134;2022-12-07T07:37:42;20.10;;;9.30;;
76597;SDS011;65486;53.144;18.134;2022-12-07T07:40:10;28.30;;;10.70;;
76597;SDS011;65486;53.144;18.134;2022-12-07T07:42:37;28.10;;;9.10;;
76597;SDS011;65486;53.144;18.134;2022-12-07T07:45:04;37.10;;;15.40;;
76597;SDS011;65486;53.144;18.134;2022-12-07T07:47:31;44.40;;;21.80;;
76597;SDS011;65486;53.144;18.134;2022-12-07T07:49:58;27.00;;;11.90;;
76597;SDS011;65486;53.144;18.134;2022-12-07T07:52:26;24.70;;;10.30;;
76597;SDS011;65486;53.144;18.134;2022-12-07T07:54:55;25.00;;;9.60;;
76597;SDS011;65486;53.144;18.134;2022-12-07T07:57:24;17.60;;;6.10;;
76597;SDS011;65486;53.144;18.134;2022-12-07T07:59:51;28.80;;;11.40;;
76597;SDS011;65486;53.144;18.134;2022-12-07T08:02:18;38.60;;;14.90;;
76597;SDS011;65486;53.144;18.134;2022-12-07T08:04:47;20.00;;;8.60;;
76597;SDS011;65486;53.144;18.134;2022-12-07T08:07:14;29.70;;;11.70;;
76597;SDS011;65486;53.144;18.134;2022-12-07T08:09:43;39.90;;;16.10;;
76597;SDS011;65486;53.144;18.134;2022-12-07T08:12:10;36.70;;;15.30;;
76597;SDS011;65486;53.144;18.134;2022-12-07T08:14:40;26.80;;;11.30;;
76597;SDS011;65486;53.144;18.134;2022-12-07T08:17:07;29.30;;;11.60;;
76597;SDS011;65486;53.144;18.134;2022-12-07T08:19:36;31.10;;;12.70;;
76597;SDS011;65486;53.144;18.134;2022-12-07T08:22:04;31.10;;;11.00;;
76597;SDS011;65486;53.144;18.134;2022-12-07T08:24:34;27.60;;;10.40;;
76597;SDS011;65486;53.144;18.134;2022-12-07T08:27:03;26.00;;;10.60;;
76597;SDS011;65486;53.144;18.134;2022-12-07T08:29:30;25.30;;;10.90;;
76597;SDS011;65486;53.144;18.134;2022-12-07T08:31:57;25.20;;;9.40;;
76597;SDS011;65486;53.144;18.134;2022-12-07T08:34:26;16.40;;;8.10;;
76597;SDS011;65486;53.144;18.134;2022-12-07T08:36:53;21.30;;;9.10;;
76597;SDS011;65486;53.144;18.134;2022-12-07T08:39:21;21.60;;;8.60;;
76597;SDS011;65486;53.144;18.134;2022-12-07T08:41:48;22.30;;;9.00;;
76597;SDS011;65486;53.144;18.134;2022-12-07T08:44:15;10.90;;;4.70;;
76597;SDS011;65486;53.144;18.134;2022-12-07T08:46:48;21.50;;;10.70;;
76597;SDS011;65486;53.144;18.134;2022-12-07T08:49:22;29.00;;;14.80;;
76597;SDS011;65486;53.144;18.134;2022-12-07T08:52:08;19.50;;;8.90;;
76597;SDS011;65486;53.144;18.134;2022-12-07T08:54:36;18.00;;;8.40;;
76597;SDS011;65486;53.144;18.134;2022-12-07T08:57:10;18.40;;;8.40;;
76597;SDS011;65486;53.144;18.134;2022-12-07T08:59:41;18.90;;;8.30;;
76597;SDS011;65486;53.144;18.134;2022-12-07T09:02:09;17.70;;;7.10;;
76597;SDS011;65486;53.144;18.134;2022-12-07T09:04:38;16.50;;;7.20;;
76597;SDS011;65486;53.144;18.134;2022-12-07T09:07:05;16.50;;;6.90;;
76597;SDS011;65486;53.144;18.134;2022-12-07T09:09:32;19.10;;;8.60;;
76597;SDS011;65486;53.144;18.134;2022-12-07T09:11:59;18.90;;;7.80;;
76597;SDS011;65486;53.144;18.134;2022-12-07T09:14:28;16.00;;;7.00;;
76597;SDS011;65486;53.144;18.134;2022-12-07T09:16:55;14.10;;;6.90;;
76597;SDS011;65486;53.144;18.134;2022-12-07T09:19:25;13.70;;;6.50;;
76597;SDS011;65486;53.144;18.134;2022-12-07T09:21:52;16.70;;;7.80;;
76597;SDS011;65486;53.144;18.134;2022-12-07T09:24:19;18.00;;;9.00;;
76597;SDS011;65486;53.144;18.134;2022-12-07T09:26:45;18.40;;;8.40;;
76597;SDS011;65486;53.144;18.134;2022-12-07T09:29:12;16.30;;;8.30;;
76597;SDS011;65486;53.144;18.134;2022-12-07T09:31:40;17.20;;;8.10;;
76597;SDS011;65486;53.144;18.134;2022-12-07T09:34:06;15.70;;;7.60;;
76597;SDS011;65486;53.144;18.134;2022-12-07T09:36:36;15.40;;;5.70;;
76597;SDS011;65486;53.144;18.134;2022-12-07T09:39:04;12.30;;;5.90;;
76597;SDS011;65486;53.144;18.134;2022-12-07T09:41:32;19.40;;;7.40;;
76597;SDS011;65486;53.144;18.134;2022-12-07T09:46:51;12.80;;;5.80;;
76597;SDS011;65486;53.144;18.134;2022-12-07T09:49:23;13.60;;;6.30;;
76597;SDS011;65486;53.144;18.134;2022-12-07T09:54:36;14.90;;;6.80;;
76597;SDS011;65486;53.144;18.134;2022-12-07T09:57:08;15.80;;;7.80;;
76597;SDS011;65486;53.144;18.134;2022-12-07T09:59:38;13.90;;;6.60;;
76597;SDS011;65486;53.144;18.134;2022-12-07T10:04:52;13.00;;;6.70;;
76597;SDS011;65486;53.144;18.134;2022-12-07T10:07:19;14.50;;;6.60;;
76597;SDS011;65486;53.144;18.134;2022-12-07T10:09:46;11.30;;;6.40;;
76597;SDS011;65486;53.144;18.134;2022-12-07T10:12:16;11.10;;;6.30;;
76597;SDS011;65486;53.144;18.134;2022-12-07T10:14:56;16.70;;;7.90;;
76597;SDS011;65486;53.144;18.134;2022-12-07T10:17:34;15.20;;;7.40;;
76597;SDS011;65486;53.144;18.134;2022-12-07T10:20:12;14.50;;;8.00;;
76597;SDS011;65486;53.144;18.134;2022-12-07T10:23:17;12.30;;;6.80;;
76597;SDS011;65486;53.144;18.134;2022-12-07T10:25:41;13.90;;;7.40;;
76597;SDS011;65486;53.144;18.134;2022-12-07T10:28:14;11.30;;;4.90;;
76597;SDS011;65486;53.144;18.134;2022-12-07T10:36:15;14.60;;;7.70;;
76597;SDS011;65486;53.144;18.134;2022-12-07T10:41:55;14.60;;;6.90;;
76597;SDS011;65486;53.144;18.134;2022-12-07T10:44:36;17.10;;;8.30;;
76597;SDS011;65486;53.144;18.134;2022-12-07T10:52:39;15.00;;;8.10;;
76597;SDS011;65486;53.144;18.134;2022-12-07T11:00:37;20.20;;;10.80;;
76597;SDS011;65486;53.144;18.134;2022-12-07T11:03:27;21.30;;;9.40;;
76597;SDS011;65486;53.144;18.134;2022-12-07T11:25:52;15.80;;;7.90;;
76597;SDS011;65486;53.144;18.134;2022-12-07T11:34:08;17.40;;;8.60;;
76597;SDS011;65486;53.144;18.134;2022-12-07T11:36:45;22.40;;;10.40;;
76597;SDS011;65486;53.144;18.134;2022-12-07T11:41:50;24.40;;;12.80;;
76597;SDS011;65486;53.144;18.134;2022-12-07T11:47:08;15.70;;;8.00;;
76597;SDS011;65486;53.144;18.134;2022-12-07T11:55:29;12.70;;;6.90;;
76597;SDS011;65486;53.144;18.134;2022-12-07T12:06:57;15.30;;;7.80;;
76597;SDS011;65486;53.144;18.134;2022-12-07T12:09:34;11.60;;;5.70;;
76597;SDS011;65486;53.144;18.134;2022-12-07T12:20:45;14.30;;;7.20;;
76597;SDS011;65486;53.144;18.134;2022-12-07T12:23:19;14.20;;;7.10;;
76597;SDS011;65486;53.144;18.134;2022-12-07T12:25:59;12.80;;;6.40;;
76597;SDS011;65486;53.144;18.134;2022-12-07T12:33:58;15.20;;;7.80;;
76597;SDS011;65486;53.144;18.134;2022-12-07T12:39:19;15.10;;;7.80;;
76597;SDS011;65486;53.144;18.134;2022-12-07T12:41:52;13.50;;;7.10;;
76597;SDS011;65486;53.144;18.134;2022-12-07T12:44:38;10.70;;;6.30;;
76597;SDS011;65486;53.144;18.134;2022-12-07T12:50:30;14.80;;;7.20;;
76597;SDS011;65486;53.144;18.134;2022-12-07T12:58:28;14.30;;;5.90;;
76597;SDS011;65486;53.144;18.134;2022-12-07T13:03:54;14.90;;;6.20;;
76597;SDS011;65486;53.144;18.134;2022-12-07T13:08:53;20.60;;;10.20;;
76597;SDS011;65486;53.144;18.134;2022-12-07T13:11:29;17.10;;;8.30;;
76597;SDS011;65486;53.144;18.134;2022-12-07T13:17:08;11.00;;;5.90;;
76597;SDS011;65486;53.144;18.134;2022-12-07T13:20:39;26.40;;;11.20;;
76597;SDS011;65486;53.144;18.134;2022-12-07T13:23:19;19.40;;;8.60;;
76597;SDS011;65486;53.144;18.134;2022-12-07T13:28:37;17.70;;;8.30;;
76597;SDS011;65486;53.144;18.134;2022-12-07T13:33:52;13.40;;;6.40;;
76597;SDS011;65486;53.144;18.134;2022-12-07T13:36:23;16.70;;;8.40;;
76597;SDS011;65486;53.144;18.134;2022-12-07T13:38:56;11.70;;;5.90;;
76597;SDS011;65486;53.144;18.134;2022-12-07T13:41:40;17.00;;;8.60;;
76597;SDS011;65486;53.144;18.134;2022-12-07T13:44:13;17.80;;;7.00;;
76597;SDS011;65486;53.144;18.134;2022-12-07T13:49:54;18.50;;;9.20;;
76597;SDS011;65486;53.144;18.134;2022-12-07T13:52:24;19.10;;;8.80;;
76597;SDS011;65486;53.144;18.134;2022-12-07T13:54:57;18.60;;;8.40;;
76597;SDS011;65486;53.144;18.134;2022-12-07T13:57:27;16.20;;;8.00;;
76597;SDS011;65486;53.144;18.134;2022-12-07T13:59:58;21.70;;;10.30;;
76597;SDS011;65486;53.144;18.134;2022-12-07T14:02:32;22.60;;;8.60;;
76597;SDS011;65486;53.144;18.134;2022-12-07T14:05:16;8.00;;;3.50;;
76597;SDS011;65486;53.144;18.134;2022-12-07T14:10:53;18.80;;;9.40;;
76597;SDS011;65486;53.144;18.134;2022-12-07T14:16:02;16.70;;;8.00;;
76597;SDS011;65486;53.144;18.134;2022-12-07T14:18:38;19.90;;;8.80;;
76597;SDS011;65486;53.144;18.134;2022-12-07T14:21:18;22.70;;;10.90;;
76597;SDS011;65486;53.144;18.134;2022-12-07T14:26:41;45.50;;;18.10;;
76597;SDS011;65486;53.144;18.134;2022-12-07T14:31:54;28.10;;;10.80;;
76597;SDS011;65486;53.144;18.134;2022-12-07T14:34:22;18.30;;;7.40;;
76597;SDS011;65486;53.144;18.134;2022-12-07T14:36:50;22.60;;;10.00;;
76597;SDS011;65486;53.144;18.134;2022-12-07T14:39:17;20.60;;;9.30;;
76597;SDS011;65486;53.144;18.134;2022-12-07T14:41:44;20.50;;;8.60;;
76597;SDS011;65486;53.144;18.134;2022-12-07T14:44:20;22.30;;;10.50;;
76597;SDS011;65486;53.144;18.134;2022-12-07T14:46:50;19.00;;;8.90;;
76597;SDS011;65486;53.144;18.134;2022-12-07T14:49:19;13.00;;;6.20;;
76597;SDS011;65486;53.144;18.134;2022-12-07T14:51:47;15.00;;;7.90;;
76597;SDS011;65486;53.144;18.134;2022-12-07T14:54:18;17.80;;;9.10;;
76597;SDS011;65486;53.144;18.134;2022-12-07T14:56:47;14.10;;;7.20;;
76597;SDS011;65486;53.144;18.134;2022-12-07T14:59:16;17.40;;;8.90;;
76597;SDS011;65486;53.144;18.134;2022-12-07T15:01:44;15.70;;;7.80;;
76597;SDS011;65486;53.144;18.134;2022-12-07T15:04:13;18.20;;;9.10;;
76597;SDS011;65486;53.144;18.134;2022-12-07T15:06:41;14.40;;;7.60;;
76597;SDS011;65486;53.144;18.134;2022-12-07T15:09:20;21.10;;;9.40;;
76597;SDS011;65486;53.144;18.134;2022-12-07T15:11:47;18.40;;;8.70;;
76597;SDS011;65486;53.144;18.134;2022-12-07T15:14:17;19.70;;;9.90;;
76597;SDS011;65486;53.144;18.134;2022-12-07T15:16:44;21.70;;;8.70;;
76597;SDS011;65486;53.144;18.134;2022-12-07T15:19:15;17.80;;;8.50;;
76597;SDS011;65486;53.144;18.134;2022-12-07T15:21:45;14.00;;;6.80;;
76597;SDS011;65486;53.144;18.134;2022-12-07T15:24:15;14.30;;;7.50;;
76597;SDS011;65486;53.144;18.134;2022-12-07T15:26:42;12.50;;;7.00;;
76597;SDS011;65486;53.144;18.134;2022-12-07T15:29:14;11.30;;;6.50;;
76597;SDS011;65486;53.144;18.134;2022-12-07T15:31:43;15.20;;;7.90;;
76597;SDS011;65486;53.144;18.134;2022-12-07T15:34:12;14.10;;;7.80;;
76597;SDS011;65486;53.144;18.134;2022-12-07T15:36:39;16.60;;;8.00;;
76597;SDS011;65486;53.144;18.134;2022-12-07T15:39:06;15.00;;;8.20;;
76597;SDS011;65486;53.144;18.134;2022-12-07T15:41:35;10.90;;;6.30;;
76597;SDS011;65486;53.144;18.134;2022-12-07T15:44:02;13.10;;;6.60;;
76597;SDS011;65486;53.144;18.134;2022-12-07T15:46:59;18.50;;;9.60;;
76597;SDS011;65486;53.144;18.134;2022-12-07T15:49:27;16.50;;;8.60;;
76597;SDS011;65486;53.144;18.134;2022-12-07T15:51:54;20.30;;;9.70;;
76597;SDS011;65486;53.144;18.134;2022-12-07T15:54:23;17.70;;;8.90;;
76597;SDS011;65486;53.144;18.134;2022-12-07T15:56:59;17.40;;;8.40;;
76597;SDS011;65486;53.144;18.134;2022-12-07T15:59:26;19.50;;;11.20;;
76597;SDS011;65486;53.144;18.134;2022-12-07T16:01:57;12.80;;;6.60;;
76597;SDS011;65486;53.144;18.134;2022-12-07T16:04:24;24.80;;;12.30;;
76597;SDS011;65486;53.144;18.134;2022-12-07T16:06:52;25.10;;;12.20;;
76597;SDS011;65486;53.144;18.134;2022-12-07T16:09:19;22.10;;;11.40;;
76597;SDS011;65486;53.144;18.134;2022-12-07T16:11:47;21.10;;;10.20;;
76597;SDS011;65486;53.144;18.134;2022-12-07T16:14:17;18.70;;;10.20;;
76597;SDS011;65486;53.144;18.134;2022-12-07T16:16:43;14.50;;;6.90;;
76597;SDS011;65486;53.144;18.134;2022-12-07T16:19:11;11.10;;;5.30;;
76597;SDS011;65486;53.144;18.134;2022-12-07T16:21:38;16.50;;;7.50;;
76597;SDS011;65486;53.144;18.134;2022-12-07T16:24:07;14.60;;;7.70;;
76597;SDS011;65486;53.144;18.134;2022-12-07T16:26:36;15.80;;;8.00;;
76597;SDS011;65486;53.144;18.134;2022-12-07T16:29:03;14.00;;;7.80;;
76597;SDS011;65486;53.144;18.134;2022-12-07T16:31:30;16.30;;;8.10;;
76597;SDS011;65486;53.144;18.134;2022-12-07T16:34:00;14.90;;;7.60;;
76597;SDS011;65486;53.144;18.134;2022-12-07T16:36:27;24.20;;;10.60;;
76597;SDS011;65486;53.144;18.134;2022-12-07T16:38:54;24.50;;;10.40;;
76597;SDS011;65486;53.144;18.134;2022-12-07T16:41:22;27.40;;;12.30;;
76597;SDS011;65486;53.144;18.134;2022-12-07T16:43:50;23.10;;;10.40;;
76597;SDS011;65486;53.144;18.134;2022-12-07T16:46:17;19.30;;;8.40;;
76597;SDS011;65486;53.144;18.134;2022-12-07T16:48:44;20.70;;;9.30;;
76597;SDS011;65486;53.144;18.134;2022-12-07T16:51:13;12.00;;;5.20;;
76597;SDS011;65486;53.144;18.134;2022-12-07T16:53:41;21.10;;;9.30;;
76597;SDS011;65486;53.144;18.134;2022-12-07T16:56:10;12.30;;;5.10;;
76597;SDS011;65486;53.144;18.134;2022-12-07T16:58:38;19.60;;;9.30;;
76597;SDS011;65486;53.144;18.134;2022-12-07T17:01:16;14.70;;;6.00;;
76597;SDS011;65486;53.144;18.134;2022-12-07T17:03:46;19.10;;;8.40;;
76597;SDS011;65486;53.144;18.134;2022-12-07T17:06:13;16.50;;;6.60;;
76597;SDS011;65486;53.144;18.134;2022-12-07T17:08:49;20.60;;;8.30;;
76597;SDS011;65486;53.144;18.134;2022-12-07T17:11:19;14.30;;;4.80;;
76597;SDS011;65486;53.144;18.134;2022-12-07T17:13:51;14.00;;;5.60;;
76597;SDS011;65486;53.144;18.134;2022-12-07T17:16:39;12.40;;;5.30;;
76597;SDS011;65486;53.144;18.134;2022-12-07T17:19:06;15.70;;;7.80;;
76597;SDS011;65486;53.144;18.134;2022-12-07T17:21:35;15.70;;;7.20;;
76597;SDS011;65486;53.144;18.134;2022-12-07T17:24:03;17.00;;;8.60;;
76597;SDS011;65486;53.144;18.134;2022-12-07T17:26:32;19.80;;;9.20;;